MST,Max TemperatureF,Mean TemperatureF,Min TemperatureF,Max Dew PointF,MeanDew PointF,Min DewpointF,Max Humidity, Mean Humidity, Min Humidity, Max Sea Level PressureIn, Mean Sea Level PressureIn, Min Sea Level PressureIn, Max VisibilityMiles, Mean VisibilityMiles, Min VisibilityMiles, Max Wind SpeedMPH, Mean Wind SpeedMPH, Max Gust SpeedMPH,PrecipitationIn, CloudCover, Events, WindDirDegrees
2012-9-1,102,93,84,66,62,59,55,32,24,29.92,29.85,29.79,15,15,15,12,5,,0.00,4,,262
2012-9-2,105,94,84,66,62,57,55,32,22,29.90,29.84,29.77,15,15,15,12,5,,0.00,2,,254
2012-9-3,102,92,82,64,60,55,51,33,22,30.00,29.92,29.85,15,15,15,7,5,,0.00,3,,258
2012-9-4,100,90,80,66,62,57,61,40,27,30.03,29.96,29.87,15,15,15,21,9,26,0.00,3,,330
2012-9-5,100,90,80,66,63,57,61,41,25,29.98,29.89,29.80,20,16,15,13,7,16,0.00,3,,235
2012-9-6,100,90,80,70,67,61,70,49,29,29.94,29.88,29.80,15,9,0,23,9,40,0.00,4,,219
2012-9-7,80,74,69,73,71,66,94,81,65,30.05,29.97,29.90,20,14,2,14,5,,0.00,7,Rain-Thunderstorm,128
2012-9-8,91,83,75,72,66,61,89,54,38,29.97,29.92,29.87,20,17,15,17,10,,0.00,6,,61
2012-9-9,91,84,78,64,60,55,54,43,33,29.98,29.95,29.88,20,14,3,23,12,30,0.00,6,,92
2012-9-10,95,84,73,70,62,57,88,47,28,29.99,29.92,29.83,20,15,10,21,6,30,0.00,6,Thunderstorm,175
2012-9-11,78,74,71,70,67,64,88,78,65,30.00,29.96,29.92,15,13,10,6,2,,0.00,7,Rain,-1
2012-9-12,91,81,71,68,63,57,88,53,31,30.01,29.94,29.88,20,19,15,9,5,,0.00,2,,237
2012-9-13,96,84,73,64,57,54,73,36,23,30.02,29.96,29.90,20,15,10,18,5,,0.00,2,,209
2012-9-14,91,83,75,48,47,46,38,26,21,30.12,30.05,29.99,15,15,15,21,16,23,0.00,0,,69
2012-9-15,93,81,69,48,42,36,46,24,13,30.13,30.05,29.96,15,15,15,15,9,23,0.00,0,,77
2012-9-16,96,81,66,54,43,23,64,28,7,30.07,29.99,29.92,20,16,15,8,5,,0.00,1,,243
2012-9-17,95,82,69,61,56,52,57,38,23,30.01,29.94,29.86,15,15,15,9,5,,0.00,1,,220
2012-9-18,98,84,69,57,52,46,64,32,17,30.00,29.94,29.88,15,15,15,9,3,,0.00,1,,238
2012-9-19,102,86,69,55,44,36,60,25,10,29.99,29.92,29.85,20,17,15,9,5,,0.00,0,,242
2012-9-20,102,86,69,57,44,37,50,24,11,29.96,29.90,29.83,15,15,15,8,5,,0.00,4,,263
2012-9-21,102,85,68,55,44,37,64,24,11,29.93,29.87,29.80,15,15,15,8,4,,0.00,1,,284
2012-9-22,104,86,69,54,44,36,53,23,10,29.95,29.88,29.82,15,15,15,8,5,,0.00,5,,271
2012-9-23,100,86,73,54,45,39,50,23,13,29.97,29.91,29.86,15,15,15,9,4,,0.00,5,,284
2012-9-24,98,84,71,54,46,39,53,27,13,29.96,29.89,29.81,15,15,15,9,5,,0.00,4,,266
2012-9-25,95,82,68,54,45,39,60,27,14,29.88,29.81,29.76,15,15,15,14,7,21,0.00,1,,220
2012-9-26,95,80,66,52,45,37,52,28,14,29.87,29.83,29.79,15,15,15,9,5,,0.00,1,,227
2012-9-27,95,80,64,50,45,41,59,28,15,29.96,29.90,29.86,15,15,15,8,5,,0.00,6,,251
2012-9-28,93,80,68,61,54,46,73,40,20,29.93,29.86,29.79,15,15,15,8,4,,0.00,2,,176
2012-9-29,93,82,71,54,49,45,53,29,19,30.00,29.93,29.87,15,15,15,9,6,,0.00,1,,286
2012-9-30,100,83,66,54,44,36,60,26,11,29.99,29.90,29.83,15,15,15,12,5,,0.00,0,,251